Time;durP1;ratioP1;P1;durP2;ratioP2;P2;SDS_P1;SDS_P2;PMS_P1;PMS_P2;Temp;Humidity;BMP_temperature;BMP_pressure;BME280_temperature;BME280_humidity;BME280_pressure;Samples;Min_cycle;Max_cycle;Signal;HPM_P1;HPM_P2
2021/11/21 00:01:14;;;;;;;;;49.50;38.00;;;;;8.13;76.51;100900.56;5015361;28;45292;-71
2021/11/21 00:03:39;;;;;;;;;51.25;41.50;;;;;8.15;76.78;100902.25;5015061;28;45345;-74
2021/11/21 00:06:06;;;;;;;;;37.50;34.00;;;;;8.13;76.48;100892.69;5015468;28;45319;-73
2021/11/21 00:08:32;;;;;;;;;47.75;36.00;;;;;8.15;76.21;100889.16;5015315;28;45386;-71
2021/11/21 00:10:57;;;;;;;;;43.25;36.00;;;;;8.16;76.58;100890.00;5014790;28;45305;-68
2021/11/21 00:13:23;;;;;;;;;49.00;37.75;;;;;8.15;76.59;100886.53;5015051;28;45536;-71
2021/11/21 00:15:49;;;;;;;;;41.50;34.00;;;;;8.14;75.94;100882.19;5014624;28;45562;-68
2021/11/21 00:18:15;;;;;;;;;47.00;35.75;;;;;8.12;75.77;100880.50;5014226;28;45355;-71
2021/11/21 00:20:42;;;;;;;;;40.00;34.00;;;;;8.13;76.19;100872.59;5014682;28;45295;-69
2021/11/21 00:23:08;;;;;;;;;42.00;33.25;;;;;8.18;76.28;100867.22;5014256;28;45309;-71
2021/11/21 00:25:33;;;;;;;;;34.25;29.50;;;;;8.14;75.39;100849.88;5014545;28;45465;-73
2021/11/21 00:27:59;;;;;;;;;34.75;30.50;;;;;8.24;75.20;100876.72;5014169;28;47161;-70
2021/11/21 00:30:24;;;;;;;;;36.50;29.25;;;;;8.23;75.12;100872.38;5015428;28;45317;-70
2021/11/21 00:32:50;;;;;;;;;29.00;27.75;;;;;8.26;75.07;100873.13;5015071;28;45329;-69
2021/11/21 00:35:15;;;;;;;;;32.50;27.25;;;;;8.24;75.06;100859.22;5014247;28;45414;-71
2021/11/21 00:37:40;;;;;;;;;33.25;28.25;;;;;8.22;75.06;100855.78;5013930;28;47073;-69
2021/11/21 00:40:07;;;;;;;;;38.75;28.00;;;;;8.26;75.62;100856.56;5013783;28;45440;-72
2021/11/21 00:42:33;;;;;;;;;34.75;31.00;;;;;8.26;75.68;100854.78;5014012;28;45481;-73
2021/11/21 00:44:58;;;;;;;;;37.00;31.25;;;;;8.32;74.95;100851.16;5015374;28;45389;-75
2021/11/21 00:47:23;;;;;;;;;26.50;23.25;;;;;8.37;74.66;100845.78;5013704;28;46198;-69
2021/11/21 00:49:49;;;;;;;;;32.75;27.75;;;;;8.38;74.96;100840.50;5015242;28;45426;-68
2021/11/21 00:52:15;;;;;;;;;36.75;30.50;;;;;8.43;75.07;100829.88;5016269;28;45393;-66
2021/11/21 00:54:51;;;;;;;;;24.00;22.00;;;;;8.46;74.59;100837.66;5013987;28;45458;-67
2021/11/21 00:57:17;;;;;;;;;38.25;33.25;;;;;8.43;74.72;100832.50;5014067;28;47106;-72
2021/11/21 00:59:43;;;;;;;;;32.25;26.50;;;;;8.45;74.47;100833.31;5014149;28;45325;-70
2021/11/21 01:02:11;;;;;;;;;35.00;31.00;;;;;8.43;74.60;100822.91;5014463;28;45249;-71
2021/11/21 01:04:38;;;;;;;;;37.00;27.75;;;;;8.54;74.75;100837.50;5014809;28;45566;-73
2021/11/21 01:07:04;;;;;;;;;38.25;29.25;;;;;8.32;74.63;100796.97;5014142;28;45452;-73
2021/11/21 01:09:30;;;;;;;;;37.75;32.75;;;;;8.55;74.45;100820.88;5016384;28;45325;-74
2021/11/21 01:11:57;;;;;;;;;40.00;30.00;;;;;8.54;73.93;100824.41;5015432;28;45358;-72
2021/11/21 01:14:23;;;;;;;;;41.25;33.00;;;;;8.57;74.00;100825.19;5017562;28;45433;-76
2021/11/21 01:16:49;;;;;;;;;48.75;34.25;;;;;8.58;74.70;100824.28;5017309;28;46267;-74
2021/11/21 01:19:14;;;;;;;;;37.50;32.25;;;;;8.59;74.14;100820.75;5015918;28;45361;-72
2021/11/21 01:21:40;;;;;;;;;41.75;32.25;;;;;8.60;74.39;100821.59;5015510;28;45631;-74
2021/11/21 01:24:05;;;;;;;;;43.00;33.75;;;;;8.59;74.24;100826.00;5013702;28;45569;-76
2021/11/21 01:26:30;;;;;;;;;45.00;38.00;;;;;8.60;74.33;100817.22;5014115;28;45973;-70
2021/11/21 01:28:56;;;;;;;;;48.00;39.25;;;;;8.64;74.46;100815.38;5015226;28;45960;-68
2021/11/21 01:31:21;;;;;;;;;36.75;33.00;;;;;8.67;74.57;100825.75;5014874;28;45830;-69
2021/11/21 01:33:47;;;;;;;;;43.25;34.75;;;;;8.62;74.32;100811.91;5013124;28;45717;-71
2021/11/21 01:36:12;;;;;;;;;36.50;30.50;;;;;8.62;74.57;100806.69;5014072;28;45472;-75
2021/11/21 01:38:40;;;;;;;;;38.00;30.25;;;;;8.64;74.14;100810.13;5014017;28;45400;-75
2021/11/21 01:41:05;;;;;;;;;40.75;32.50;;;;;8.68;74.32;100808.28;5013752;28;45360;-73
2021/11/21 01:43:31;;;;;;;;;39.75;33.25;;;;;8.68;74.34;100813.53;5014033;28;45242;-75
2021/11/21 01:45:56;;;;;;;;;41.00;33.50;;;;;8.70;74.42;100815.19;5011373;27;47200;-74
2021/11/21 01:48:22;;;;;;;;;46.75;38.50;;;;;8.66;74.27;100802.22;5011096;28;45419;-73
2021/11/21 01:50:48;;;;;;;;;43.50;35.75;;;;;8.72;74.27;100808.13;5012293;28;45347;-73
2021/11/21 01:53:14;;;;;;;;;51.50;36.50;;;;;8.75;74.57;100810.66;5012260;28;45678;-75
2021/11/21 01:55:40;;;;;;;;;48.00;38.75;;;;;8.74;74.20;100813.34;5012920;27;45507;-73
2021/11/21 01:58:07;;;;;;;;;51.25;37.50;;;;;8.76;74.75;100808.91;5013133;28;45462;-70
2021/11/21 02:00:37;;;;;;;;;52.50;41.00;;;;;8.76;74.49;100806.28;5012324;28;45905;-74
2021/11/21 02:03:02;;;;;;;;;51.75;40.00;;;;;8.77;74.42;100802.78;5013825;28;45306;-73
2021/11/21 02:05:28;;;;;;;;;48.00;38.00;;;;;8.79;74.50;100803.59;5012997;27;46010;-72
2021/11/21 02:07:54;;;;;;;;;46.25;36.75;;;;;8.81;74.40;100796.53;5013318;28;45218;-73
2021/11/21 02:10:22;;;;;;;;;49.00;37.25;;;;;8.80;74.68;100800.06;5013040;28;45178;-72
2021/11/21 02:12:47;;;;;;;;;48.50;38.50;;;;;8.79;74.40;100795.72;5010921;28;45432;-73
2021/11/21 02:15:17;;;;;;;;;45.25;37.00;;;;;8.82;74.19;100792.13;5013354;28;45278;-74
2021/11/21 02:17:42;;;;;;;;;43.25;35.75;;;;;8.80;74.09;100792.19;4996679;28;45367;-74
2021/11/21 02:20:10;;;;;;;;;44.50;33.00;;;;;8.75;74.22;100787.06;5013314;28;45343;-74
2021/11/21 02:22:38;;;;;;;;;41.50;33.50;;;;;8.70;74.05;100788.13;5012124;28;45499;-70
2021/11/21 02:25:04;;;;;;;;;43.50;32.25;;;;;8.66;74.38;100771.59;5013997;28;46232;-72
2021/11/21 02:27:31;;;;;;;;;41.50;33.00;;;;;8.60;74.38;100780.53;5013241;27;45352;-72
2021/11/21 02:29:57;;;;;;;;;35.00;30.75;;;;;8.51;74.82;100764.19;5012804;27;45260;-72
2021/11/21 02:32:23;;;;;;;;;36.50;28.00;;;;;8.56;74.82;100773.66;5012882;28;45235;-71
2021/11/21 02:34:48;;;;;;;;;32.00;27.75;;;;;8.57;74.71;100770.13;5010845;28;47150;-73
2021/11/21 02:37:14;;;;;;;;;35.50;31.00;;;;;8.57;75.00;100767.50;5012518;28;45529;-68
2021/11/21 02:39:40;;;;;;;;;38.25;31.50;;;;;8.55;74.74;100764.06;5014136;28;45291;-72
2021/11/21 02:42:07;;;;;;;;;34.00;30.50;;;;;8.52;75.12;100753.66;5016045;28;45424;-72
2021/11/21 02:44:32;;;;;;;;;43.75;34.00;;;;;8.52;75.06;100764.16;5015611;27;46558;-70
2021/11/21 02:46:58;;;;;;;;;37.25;30.75;;;;;8.44;75.20;100745.97;5017250;28;45447;-73
2021/11/21 02:49:23;;;;;;;;;47.25;36.25;;;;;8.48;75.27;100758.09;5016865;28;45305;-70
2021/11/21 02:51:49;;;;;;;;;40.25;32.25;;;;;8.48;75.47;100757.22;5015767;28;45388;-71
2021/11/21 02:54:14;;;;;;;;;43.25;30.50;;;;;8.48;75.26;100757.22;5015025;28;46223;-69
2021/11/21 02:56:39;;;;;;;;;43.50;32.50;;;;;8.47;75.73;100753.75;5015075;28;45438;-72
2021/11/21 02:59:05;;;;;;;;;38.00;30.50;;;;;8.42;75.65;100733.78;5015255;27;45369;-72
2021/11/21 03:01:30;;;;;;;;;34.00;31.00;;;;;8.43;75.76;100731.16;5015722;28;45422;-73
2021/11/21 03:03:57;;;;;;;;;38.50;30.75;;;;;8.39;75.81;100724.28;5015106;27;46348;-70
2021/11/21 03:06:23;;;;;;;;;33.25;27.25;;;;;8.40;75.44;100726.00;5015126;28;45337;-68
2021/11/21 03:08:49;;;;;;;;;37.00;30.50;;;;;8.41;75.99;100721.59;5015656;28;45355;-69
2021/11/21 03:11:15;;;;;;;;;36.25;31.00;;;;;8.39;75.99;100716.41;5017355;27;45463;-71
2021/11/21 03:13:41;;;;;;;;;40.00;30.50;;;;;8.36;75.79;100716.50;5014739;27;47038;-71
2021/11/21 03:16:06;;;;;;;;;33.50;30.75;;;;;8.35;75.80;100717.41;5015575;27;45374;-71
2021/11/21 03:18:32;;;;;;;;;24.75;24.50;;;;;8.26;75.47;100705.41;5016678;27;45350;-67
2021/11/21 03:20:57;;;;;;;;;34.75;30.00;;;;;8.29;76.22;100707.09;5017150;28;45379;-69
2021/11/21 03:23:22;;;;;;;;;36.75;31.00;;;;;8.20;76.18;100692.47;5016354;27;47562;-70
2021/11/21 03:25:48;;;;;;;;;40.75;32.00;;;;;8.23;75.83;100700.25;5016149;27;45414;-76
2021/11/21 03:28:13;;;;;;;;;45.25;31.50;;;;;8.21;76.21;100699.44;5015051;27;45382;-73
2021/11/21 03:30:38;;;;;;;;;36.75;30.50;;;;;8.16;76.68;100689.09;5015202;28;45599;-74
2021/11/21 03:33:05;;;;;;;;;40.00;30.50;;;;;8.18;75.98;100702.16;5016679;28;45485;-72
2021/11/21 03:35:30;;;;;;;;;38.00;32.00;;;;;8.17;75.90;100703.03;5016234;28;45259;-70
2021/11/21 03:37:56;;;;;;;;;42.00;30.25;;;;;8.10;76.43;100689.28;5014818;27;45373;-72
2021/11/21 03:40:21;;;;;;;;;34.00;27.00;;;;;8.15;76.89;100695.25;5016062;28;45358;-71
2021/11/21 03:42:47;;;;;;;;;36.75;30.50;;;;;8.13;76.57;100701.41;5015137;28;45240;-71
2021/11/21 03:45:13;;;;;;;;;41.00;33.25;;;;;8.09;76.88;100691.94;5014846;28;45221;-72
2021/11/21 03:47:39;;;;;;;;;38.75;28.25;;;;;8.08;76.45;100690.22;5015327;28;45367;-71
2021/11/21 03:50:07;;;;;;;;;38.50;27.75;;;;;8.06;76.79;100689.41;5014351;27;45461;-75
2021/11/21 03:52:33;;;;;;;;;31.75;27.75;;;;;8.03;76.62;100690.34;5013651;28;46356;-73
2021/11/21 03:54:58;;;;;;;;;30.25;27.75;;;;;8.00;77.15;100693.91;5015273;27;45857;-70
2021/11/21 03:57:24;;;;;;;;;33.00;25.50;;;;;7.93;76.62;100699.34;5016832;28;45352;-74
2021/11/21 03:59:49;;;;;;;;;42.75;29.75;;;;;7.85;76.88;100697.78;5015751;28;45407;-73
2021/11/21 04:02:14;;;;;;;;;31.25;25.75;;;;;7.79;77.05;100697.09;5015132;27;45337;-73
2021/11/21 04:04:40;;;;;;;;;39.25;29.75;;;;;7.70;77.77;100695.59;5014737;28;45290;-75
2021/11/21 04:07:05;;;;;;;;;35.25;30.75;;;;;7.77;78.09;100702.38;5017297;27;45394;-72
2021/11/21 04:09:31;;;;;;;;;37.25;30.75;;;;;7.76;77.57;100695.41;5016281;28;45611;-75
2021/11/21 04:11:56;;;;;;;;;43.75;29.75;;;;;7.75;77.65;100691.09;5014872;28;46259;-70
2021/11/21 04:14:23;;;;;;;;;46.25;34.75;;;;;7.72;77.69;100688.53;5015747;28;45299;-73
2021/11/21 04:16:49;;;;;;;;;40.50;31.25;;;;;7.70;78.30;100678.13;5015806;28;45232;-74
2021/11/21 04:19:14;;;;;;;;;34.00;25.50;;;;;7.70;78.26;100685.97;5015636;28;45203;-73
2021/11/21 04:21:40;;;;;;;;;37.75;31.25;;;;;7.68;78.55;100669.47;5015604;27;45981;-73
2021/11/21 04:24:08;;;;;;;;;41.25;33.00;;;;;7.60;78.30;100658.34;5015341;28;45308;-68
2021/11/21 04:26:35;;;;;;;;;39.25;34.00;;;;;7.70;78.66;100672.00;5016140;28;45337;-75
2021/11/21 04:29:03;;;;;;;;;40.75;28.50;;;;;7.72;79.03;100667.59;5015615;28;45344;-72
2021/11/21 04:31:28;;;;;;;;;28.75;24.50;;;;;7.72;78.65;100670.22;5015217;28;46152;-73
2021/11/21 04:33:54;;;;;;;;;36.25;27.00;;;;;7.73;78.30;100666.69;5015770;27;45218;-75
2021/11/21 04:36:20;;;;;;;;;32.25;27.00;;;;;7.69;78.76;100667.69;5014395;27;45333;-76
2021/11/21 04:38:45;;;;;;;;;30.00;25.75;;;;;7.64;78.64;100664.31;5014683;28;45244;-73
2021/11/21 04:41:11;;;;;;;;;36.00;29.00;;;;;7.62;78.77;100663.50;5014205;28;45703;-73
2021/11/21 04:43:37;;;;;;;;;33.75;30.50;;;;;7.61;79.03;100662.66;5015585;28;45355;-72
2021/11/21 04:46:02;;;;;;;;;32.75;25.25;;;;;7.55;78.46;100649.75;5014824;27;45302;-74
2021/11/21 04:48:28;;;;;;;;;29.25;26.75;;;;;7.57;78.76;100656.63;5014255;28;45526;-73
2021/11/21 04:50:53;;;;;;;;;30.00;27.25;;;;;7.52;78.52;100655.91;5014124;27;45528;-73
2021/11/21 04:53:19;;;;;;;;;33.50;25.75;;;;;7.51;79.41;100651.56;5013882;27;45443;-73
2021/11/21 04:55:44;;;;;;;;;31.00;23.75;;;;;7.47;79.64;100649.94;5014566;28;45319;-74
2021/11/21 04:58:11;;;;;;;;;35.25;27.75;;;;;7.45;79.99;100641.25;5016741;27;45468;-75
2021/11/21 05:00:36;;;;;;;;;31.00;26.75;;;;;7.42;80.44;100639.59;5014813;28;46513;-69
2021/11/21 05:03:01;;;;;;;;;39.50;31.50;;;;;7.48;80.72;100646.41;5013468;28;45241;-72
2021/11/21 05:05:27;;;;;;;;;36.50;29.25;;;;;7.53;81.34;100633.22;5016447;28;45261;-75
2021/11/21 05:07:53;;;;;;;;;33.75;27.25;;;;;7.55;81.02;100628.81;5016950;28;45245;-73
2021/11/21 05:10:20;;;;;;;;;35.25;30.75;;;;;7.60;80.99;100637.38;5012065;27;48301;-75
2021/11/21 05:12:46;;;;;;;;;41.00;34.00;;;;;7.55;80.72;100607.84;5012292;28;45397;-75
2021/11/21 05:15:14;;;;;;;;;41.75;33.50;;;;;7.63;80.19;100623.34;5012385;28;45489;-70
2021/11/21 05:17:40;;;;;;;;;43.75;33.75;;;;;7.65;80.23;100627.66;5013706;27;45553;-71
2021/11/21 05:20:07;;;;;;;;;32.25;27.25;;;;;7.66;80.80;100615.41;5013884;27;45332;-73
2021/11/21 05:22:32;;;;;;;;;45.00;30.50;;;;;7.65;81.01;100613.69;5014278;27;45282;-71
2021/11/21 05:24:58;;;;;;;;;36.25;31.00;;;;;7.62;80.97;100609.41;5013777;28;45269;-73
2021/11/21 05:27:24;;;;;;;;;39.50;30.00;;;;;7.64;80.17;100611.97;5014188;27;45632;-67
2021/11/21 05:29:51;;;;;;;;;37.00;31.00;;;;;7.65;80.05;100614.56;5016026;28;46167;-70
2021/11/21 05:32:16;;;;;;;;;35.25;27.50;;;;;7.67;80.37;100619.75;5013363;28;45442;-66
2021/11/21 05:34:42;;;;;;;;;42.75;33.75;;;;;7.65;79.89;100613.69;5011982;28;45476;-67
2021/11/21 05:37:07;;;;;;;;;33.50;29.00;;;;;7.65;80.30;100613.69;5014056;27;45373;-68
2021/11/21 05:39:33;;;;;;;;;33.75;28.75;;;;;7.58;80.00;100597.31;5013435;27;45885;-65
2021/11/21 05:41:58;;;;;;;;;37.25;30.75;;;;;7.70;80.18;100614.41;5013509;27;45424;-68
2021/11/21 05:44:23;;;;;;;;;43.25;29.00;;;;;7.67;79.87;100607.53;5013519;27;45600;-71
2021/11/21 05:46:49;;;;;;;;;30.50;25.25;;;;;7.72;80.11;100612.63;5013712;28;45408;-74
2021/11/21 05:49:14;;;;;;;;;32.50;25.50;;;;;7.71;80.40;100609.16;5014319;28;45361;-73
2021/11/21 05:51:40;;;;;;;;;35.25;31.00;;;;;7.70;80.74;100610.06;5013673;27;45345;-72
2021/11/21 05:54:05;;;;;;;;;39.25;29.00;;;;;7.71;80.16;100603.03;5014700;28;45340;-74
2021/11/21 05:56:30;;;;;;;;;29.50;25.25;;;;;7.73;80.81;100599.50;5013400;27;45259;-75
2021/11/21 05:58:56;;;;;;;;;30.75;26.50;;;;;7.77;80.89;100597.63;5013202;27;45464;-71
2021/11/21 06:01:22;;;;;;;;;31.50;23.00;;;;;7.78;79.89;100598.50;5012831;28;45334;-73
2021/11/21 06:03:50;;;;;;;;;25.50;21.00;;;;;7.78;80.55;100595.88;5012786;27;45317;-69
2021/11/21 06:06:15;;;;;;;;;21.50;20.25;;;;;7.76;79.90;100601.16;5013037;27;45568;-73
2021/11/21 06:08:41;;;;;;;;;27.75;21.00;;;;;7.73;80.52;100593.38;5012485;28;45743;-71
2021/11/21 06:11:06;;;;;;;;;28.25;25.50;;;;;7.70;80.41;100594.34;5013331;27;45463;-75
2021/11/21 06:13:31;;;;;;;;;26.50;24.25;;;;;7.70;80.72;100598.69;5014602;28;45345;-74
2021/11/21 06:15:57;;;;;;;;;26.50;20.00;;;;;7.70;81.08;100593.47;5017205;27;45443;-73
2021/11/21 06:18:22;;;;;;;;;26.00;22.00;;;;;7.72;80.38;100589.91;5013981;27;46343;-72
2021/11/21 06:20:48;;;;;;;;;28.50;23.50;;;;;7.74;81.04;100590.72;5013002;28;45309;-75
2021/11/21 06:23:13;;;;;;;;;29.00;23.25;;;;;7.73;80.81;100589.03;5012666;28;45357;-75
2021/11/21 06:25:40;;;;;;;;;31.50;26.25;;;;;7.72;81.63;100582.06;5012899;27;45282;-74
2021/11/21 06:28:05;;;;;;;;;33.50;27.75;;;;;7.75;80.84;100581.09;5012871;28;45901;-70
2021/11/21 06:30:31;;;;;;;;;32.75;30.25;;;;;7.69;80.95;100568.19;5012219;28;45337;-73
2021/11/21 06:32:56;;;;;;;;;31.25;25.25;;;;;7.75;80.86;100574.13;5012521;28;45300;-68
2021/11/21 06:35:22;;;;;;;;;36.50;25.75;;;;;7.53;80.24;100549.44;5013653;28;45448;-72
2021/11/21 06:37:47;;;;;;;;;28.75;25.25;;;;;7.77;80.75;100575.84;5014052;28;45385;-71
2021/11/21 06:40:14;;;;;;;;;25.50;22.50;;;;;7.79;80.12;100584.50;5016342;27;45377;-72
2021/11/21 06:42:42;;;;;;;;;35.00;27.00;;;;;7.79;80.37;100587.13;5014679;28;45330;-68
2021/11/21 06:45:11;;;;;;;;;29.00;25.75;;;;;7.78;80.30;100581.00;5013351;28;45303;-71
2021/11/21 06:47:37;;;;;;;;;33.50;26.75;;;;;7.70;80.11;100562.06;5012390;28;45635;-70
2021/11/21 06:50:05;;;;;;;;;28.25;21.00;;;;;7.80;80.80;100591.47;5011969;27;45391;-73
2021/11/21 06:52:31;;;;;;;;;38.25;27.00;;;;;7.79;80.35;100585.34;5011964;27;45401;-71
2021/11/21 06:54:57;;;;;;;;;28.25;24.00;;;;;7.79;80.47;100581.88;5012489;27;45454;-75
2021/11/21 06:57:22;;;;;;;;;30.00;23.50;;;;;7.74;80.76;100584.63;5012485;27;45393;-74
2021/11/21 06:59:48;;;;;;;;;32.25;25.00;;;;;7.73;80.72;100578.53;5012918;27;45292;-75
2021/11/21 07:02:14;;;;;;;;;32.25;26.00;;;;;7.75;80.34;100581.09;5015411;28;45284;-76
2021/11/21 07:04:40;;;;;;;;;22.75;21.75;;;;;7.77;80.68;100581.06;5014064;28;45298;-74
2021/11/21 07:07:09;;;;;;;;;26.50;24.75;;;;;7.78;80.90;100581.00;5011907;28;46413;-73
2021/11/21 07:09:35;;;;;;;;;35.50;27.75;;;;;7.71;80.76;100561.16;5012045;28;45388;-73
2021/11/21 07:12:01;;;;;;;;;29.75;24.50;;;;;7.78;81.22;100577.56;5012281;28;45266;-75
2021/11/21 07:14:26;;;;;;;;;27.75;21.75;;;;;7.78;81.35;100578.41;5010549;28;45564;-74
2021/11/21 07:16:52;;;;;;;;;22.50;21.00;;;;;7.77;81.57;100576.69;5011759;28;46186;-76
2021/11/21 07:19:17;;;;;;;;;24.00;20.00;;;;;7.79;81.27;100576.66;5010687;27;45365;-75
2021/11/21 07:21:44;;;;;;;;;31.50;23.00;;;;;7.81;81.30;100573.06;5012418;28;45636;-75
2021/11/21 07:24:10;;;;;;;;;32.25;28.75;;;;;7.86;81.62;100581.66;5012559;27;45573;-74
2021/11/21 07:26:35;;;;;;;;;27.50;21.75;;;;;7.91;81.03;100578.91;5015907;28;46224;-74
2021/11/21 07:29:01;;;;;;;;;36.00;26.25;;;;;7.93;81.08;100577.09;5014810;28;45521;-74
2021/11/21 07:31:26;;;;;;;;;32.50;22.00;;;;;7.97;80.76;100577.88;5014747;28;45191;-73
2021/11/21 07:33:52;;;;;;;;;23.25;20.75;;;;;7.99;80.83;100579.53;5014954;28;45464;-71
2021/11/21 07:36:17;;;;;;;;;26.50;22.25;;;;;8.00;80.85;100576.03;5014778;28;45275;-72
2021/11/21 07:38:43;;;;;;;;;29.50;21.25;;;;;8.04;80.26;100580.25;5014027;28;45441;-76
2021/11/21 07:41:08;;;;;;;;;26.50;24.75;;;;;8.03;80.39;100568.06;5016228;27;45331;-73
2021/11/21 07:43:34;;;;;;;;;34.75;25.25;;;;;8.06;80.25;100556.66;5015923;28;46164;-73
2021/11/21 07:46:00;;;;;;;;;28.25;22.75;;;;;8.10;80.24;100566.13;5015158;28;46122;-73
2021/11/21 07:48:27;;;;;;;;;23.50;21.25;;;;;8.06;79.77;100556.66;5016452;28;45383;-75
2021/11/21 07:50:52;;;;;;;;;25.00;18.75;;;;;8.15;80.33;100560.75;5014719;28;45441;-74
2021/11/21 07:53:18;;;;;;;;;28.50;21.50;;;;;8.10;80.34;100547.81;5014860;28;45326;-75
2021/11/21 07:55:43;;;;;;;;;27.25;23.25;;;;;8.18;80.04;100565.88;5015091;28;45990;-73
2021/11/21 07:58:08;;;;;;;;;25.00;21.50;;;;;8.13;79.21;100559.94;5014771;28;45419;-75
2021/11/21 08:00:34;;;;;;;;;28.50;25.75;;;;;8.11;79.41;100554.75;5015544;27;45369;-72
2021/11/21 08:03:01;;;;;;;;;27.50;20.75;;;;;8.18;79.72;100563.28;5015124;27;45386;-75
2021/11/21 08:05:26;;;;;;;;;23.00;19.50;;;;;8.16;79.55;100554.59;5014854;27;45471;-75
2021/11/21 08:07:52;;;;;;;;;27.50;22.00;;;;;8.22;79.31;100562.28;5014429;28;45438;-72
2021/11/21 08:10:17;;;;;;;;;26.75;23.25;;;;;8.22;79.66;100567.50;5014752;28;45627;-72
2021/11/21 08:12:42;;;;;;;;;28.50;23.00;;;;;8.14;79.28;100559.91;5017912;28;45465;-71
2021/11/21 08:15:09;;;;;;;;;23.25;20.00;;;;;8.25;79.72;100566.56;5014561;28;45260;-73
2021/11/21 08:17:35;;;;;;;;;26.75;22.00;;;;;8.25;79.20;100553.47;5014367;28;45277;-71
2021/11/21 08:20:00;;;;;;;;;25.75;23.00;;;;;8.24;79.91;100543.91;5014630;28;45272;-73
2021/11/21 08:22:26;;;;;;;;;23.50;17.50;;;;;8.30;80.07;100556.81;5014234;27;45456;-75
2021/11/21 08:24:51;;;;;;;;;28.25;24.50;;;;;8.29;79.60;100548.06;5014480;28;45876;-74
2021/11/21 08:27:17;;;;;;;;;31.50;26.25;;;;;8.35;79.81;100562.75;5014117;28;45448;-67
2021/11/21 08:29:43;;;;;;;;;30.00;22.00;;;;;8.39;79.62;100563.50;5014282;28;45322;-72
2021/11/21 08:32:09;;;;;;;;;28.25;24.25;;;;;8.40;79.62;100559.97;5013060;28;45366;-76
2021/11/21 08:34:34;;;;;;;;;31.25;22.50;;;;;8.42;79.03;100558.16;5014623;27;45399;-76
2021/11/21 08:37:00;;;;;;;;;26.25;20.75;;;;;8.40;79.20;100546.88;5015554;28;45383;-70
2021/11/21 08:39:26;;;;;;;;;24.25;20.00;;;;;8.51;78.90;100557.06;5014549;28;45784;-75
2021/11/21 08:41:53;;;;;;;;;31.25;26.50;;;;;8.50;78.73;100556.22;5014448;28;45408;-76
2021/11/21 08:44:20;;;;;;;;;22.75;20.75;;;;;8.52;78.97;100559.66;5014053;28;46551;-73
2021/11/21 08:46:46;;;;;;;;;20.75;19.50;;;;;8.52;78.92;100554.41;5015173;28;45344;-76
2021/11/21 08:49:12;;;;;;;;;28.50;21.75;;;;;8.56;78.95;100556.03;5016129;27;45436;-74
2021/11/21 08:51:38;;;;;;;;;29.50;25.00;;;;;8.65;79.09;100562.72;5014228;27;45563;-73
2021/11/21 08:54:03;;;;;;;;;30.00;21.50;;;;;8.68;78.83;100559.16;5013955;27;46006;-72
2021/11/21 08:56:29;;;;;;;;;30.25;23.25;;;;;8.68;78.68;100561.78;5012722;28;45561;-74
2021/11/21 08:58:54;;;;;;;;;26.25;23.00;;;;;8.72;78.33;100577.34;5015633;27;45399;-74
2021/11/21 09:01:20;;;;;;;;;25.75;25.75;;;;;8.74;78.10;100570.28;5018593;28;45273;-76
2021/11/21 09:03:46;;;;;;;;;29.50;26.50;;;;;8.74;78.33;100558.94;5017756;28;45967;-73
2021/11/21 09:06:11;;;;;;;;;32.00;27.25;;;;;8.76;78.11;100557.13;5014428;28;45351;-75
2021/11/21 09:08:36;;;;;;;;;25.75;23.75;;;;;8.75;78.47;100540.53;5013929;28;45417;-72
2021/11/21 09:11:02;;;;;;;;;20.25;18.00;;;;;8.89;78.22;100558.44;5014790;28;45310;-71
2021/11/21 09:13:28;;;;;;;;;27.50;20.00;;;;;8.93;77.97;100553.94;5014776;27;45970;-76
2021/11/21 09:15:54;;;;;;;;;28.25;25.75;;;;;8.95;77.60;100556.50;5014917;27;45262;-73
2021/11/21 09:18:24;;;;;;;;;25.25;23.25;;;;;8.93;77.73;100545.22;5013569;27;45215;-73
2021/11/21 09:20:50;;;;;;;;;27.75;23.00;;;;;8.98;77.93;100536.25;5015018;28;45453;-69
2021/11/21 09:23:18;;;;;;;;;33.25;25.75;;;;;9.03;77.65;100528.25;5015550;27;45416;-74
2021/11/21 09:25:44;;;;;;;;;35.00;21.50;;;;;9.06;77.41;100530.75;5013472;27;45189;-72
2021/11/21 09:28:09;;;;;;;;;28.25;26.75;;;;;9.12;77.77;100527.94;5013719;27;45207;-72
2021/11/21 09:30:34;;;;;;;;;26.00;22.75;;;;;9.21;77.04;100530.22;5013834;27;45483;-72
2021/11/21 09:33:00;;;;;;;;;25.25;22.25;;;;;9.22;77.16;100544.22;5013686;27;45273;-73
2021/11/21 09:35:25;;;;;;;;;28.25;24.25;;;;;9.28;76.66;100549.25;5014316;27;45337;-72
2021/11/21 09:37:51;;;;;;;;;23.50;23.00;;;;;9.26;76.63;100551.06;5012960;28;45328;-74
2021/11/21 09:40:17;;;;;;;;;29.00;22.25;;;;;9.29;76.28;100557.97;5015397;27;45591;-70
2021/11/21 09:42:43;;;;;;;;;24.50;18.00;;;;;9.25;76.75;100565.09;5013473;28;46051;-73
2021/11/21 09:45:11;;;;;;;;;24.75;20.75;;;;;9.23;76.42;100566.94;5014716;27;45301;-75
2021/11/21 09:47:36;;;;;;;;;24.75;23.00;;;;;9.16;76.28;100557.56;5012044;28;45525;-75
2021/11/21 09:50:09;;;;;;;;;24.50;20.00;;;;;9.12;76.56;100550.69;5012683;28;45347;-72
2021/11/21 09:52:36;;;;;;;;;18.00;18.00;;;;;9.16;76.92;100562.81;5013466;28;46412;-73
2021/11/21 09:55:03;;;;;;;;;30.50;24.75;;;;;9.12;76.74;100558.56;5012184;27;46335;-74
2021/11/21 09:57:30;;;;;;;;;28.25;26.00;;;;;9.12;76.73;100548.91;5013909;27;45378;-72
2021/11/21 09:59:59;;;;;;;;;32.50;26.00;;;;;9.17;76.98;100552.25;5014133;28;45274;-76
2021/11/21 10:02:38;;;;;;;;;38.75;30.00;;;;;9.25;76.54;100554.59;5018649;27;46775;-75
2021/11/21 10:05:19;;;;;;;;;28.25;26.50;;;;;9.16;76.72;100534.78;5017054;28;45808;-75
2021/11/21 10:07:44;;;;;;;;;28.00;24.75;;;;;9.38;76.58;100551.53;5013706;28;45374;-68
2021/11/21 10:10:17;;;;;;;;;30.75;26.75;;;;;9.48;76.52;100548.53;5012567;28;45599;-72
2021/11/21 10:12:43;;;;;;;;;26.50;22.25;;;;;9.57;76.47;100539.47;5014222;28;45321;-70
2021/11/21 10:15:13;;;;;;;;;29.50;25.25;;;;;9.65;76.15;100536.56;5013592;28;45500;-68
2021/11/21 10:17:41;;;;;;;;;31.75;25.25;;;;;9.81;76.11;100546.50;5014667;28;45260;-70
2021/11/21 10:20:21;;;;;;;;;31.75;30.00;;;;;9.91;75.14;100537.34;5012756;28;45459;-67
2021/11/21 10:22:58;;;;;;;;;29.25;26.00;;;;;9.97;74.90;100534.50;5013287;28;45285;-70
2021/11/21 10:25:33;;;;;;;;;35.50;30.00;;;;;10.01;74.90;100530.81;5013063;28;45428;-72
2021/11/21 10:28:03;;;;;;;;;37.50;27.25;;;;;10.09;75.05;100527.91;5013231;28;45241;-72
2021/11/21 10:30:29;;;;;;;;;34.75;30.75;;;;;10.11;74.45;100517.31;5013692;28;45311;-75
2021/11/21 10:32:55;;;;;;;;;39.75;30.50;;;;;10.26;73.95;100526.38;5014605;28;46242;-74
2021/11/21 10:35:23;;;;;;;;;27.00;24.00;;;;;10.27;74.24;100528.94;5013861;27;45549;-75
2021/11/21 10:37:49;;;;;;;;;27.75;25.00;;;;;10.26;73.93;100532.50;5013677;27;45258;-75
2021/11/21 10:40:17;;;;;;;;;28.00;25.25;;;;;10.24;73.55;100531.69;5013245;27;45272;-76
2021/11/21 10:42:46;;;;;;;;;29.75;25.50;;;;;10.26;73.94;100534.28;5012821;27;45554;-75
2021/11/21 10:45:19;;;;;;;;;27.50;23.75;;;;;10.13;73.84;100507.59;5012885;27;45276;-76
2021/11/21 10:47:47;;;;;;;;;39.75;30.00;;;;;10.25;73.92;100522.06;5011441;28;45417;-75
2021/11/21 10:50:49;;;;;;;;;34.75;30.50;;;;;10.26;73.78;100524.59;5013530;27;45230;-77
2021/11/21 10:53:15;;;;;;;;;39.50;32.50;;;;;10.24;73.72;100515.91;4982389;28;45337;-75
2021/11/21 10:55:41;;;;;;;;;34.25;30.00;;;;;10.24;73.66;100523.81;5014669;28;45253;-68
2021/11/21 10:58:15;;;;;;;;;41.75;32.00;;;;;10.21;73.43;100523.94;5012129;28;45273;-72
2021/11/21 11:00:42;;;;;;;;;32.25;30.25;;;;;10.16;73.88;100524.13;5014677;28;45554;-75
2021/11/21 11:03:18;;;;;;;;;33.50;30.00;;;;;10.08;73.64;100516.53;5015309;27;46216;-74
2021/11/21 11:05:46;;;;;;;;;40.50;32.75;;;;;10.02;74.10;100514.16;5015187;28;45337;-73
2021/11/21 11:08:13;;;;;;;;;37.25;32.00;;;;;9.97;74.09;100516.09;5016334;28;45436;-71
2021/11/21 11:10:39;;;;;;;;;38.00;31.50;;;;;9.89;74.38;100512.91;5015886;27;45381;-74
2021/11/21 11:13:15;;;;;;;;;39.75;32.25;;;;;9.78;74.38;100508.94;5015692;27;47073;-73